Time;durP1;ratioP1;P1;durP2;ratioP2;P2;SDS_P1;SDS_P2;PMS_P1;PMS_P2;Temp;Humidity;BMP_temperature;BMP_pressure;BME280_temperature;BME280_humidity;BME280_pressure;Samples;Min_cycle;Max_cycle;Signal;HPM_P1;HPM_P2
2022/12/08 00:01:37;;;;;;;11.38;4.63;;;;;;;;;;5029225;28;20030;-71
2022/12/08 00:04:03;;;;;;;8.98;5.30;;;;;;;;;;5028126;28;20041;-72
2022/12/08 00:09:35;;;;;;;10.10;4.32;;;;;;;;;;5021612;28;20052;-72
2022/12/08 00:12:03;;;;;;;6.75;4.13;;;;;;;;;;5045394;28;20041;-72
2022/12/08 00:14:30;;;;;;;8.02;3.78;;;;;;;;;;5043316;28;20026;-71
2022/12/08 00:16:55;;;;;;;9.57;4.20;;;;;;;;;;5025272;28;20072;-72
2022/12/08 00:19:22;;;;;;;8.13;4.38;;;;;;;;;;5040761;28;20457;-72
2022/12/08 00:21:48;;;;;;;7.07;4.47;;;;;;;;;;5050482;28;20083;-72
2022/12/08 00:24:13;;;;;;;10.10;4.70;;;;;;;;;;5021348;28;20485;-72
2022/12/08 00:26:38;;;;;;;10.98;3.45;;;;;;;;;;5032181;28;20076;-72
2022/12/08 00:29:04;;;;;;;16.05;4.85;;;;;;;;;;5024439;28;20038;-72
2022/12/08 00:31:29;;;;;;;6.07;3.55;;;;;;;;;;5011079;28;20049;-71
2022/12/08 00:33:55;;;;;;;10.32;3.35;;;;;;;;;;5022467;28;20121;-72
2022/12/08 00:36:20;;;;;;;6.00;3.40;;;;;;;;;;5019842;28;20034;-72
2022/12/08 00:38:47;;;;;;;7.85;4.03;;;;;;;;;;5036983;28;20397;-71
2022/12/08 00:41:15;;;;;;;7.50;3.90;;;;;;;;;;5023020;28;20030;-71
2022/12/08 00:43:40;;;;;;;14.23;3.63;;;;;;;;;;5006342;28;20171;-71
2022/12/08 00:46:06;;;;;;;8.48;3.95;;;;;;;;;;5034171;28;20073;-71
2022/12/08 00:48:31;;;;;;;15.07;3.95;;;;;;;;;;5025943;28;20056;-72
2022/12/08 00:50:57;;;;;;;8.45;3.75;;;;;;;;;;5019489;28;20026;-71
2022/12/08 00:53:22;;;;;;;5.55;3.08;;;;;;;;;;5031366;28;20037;-72
2022/12/08 00:55:47;;;;;;;7.30;3.65;;;;;;;;;;5024056;28;20037;-71
2022/12/08 00:58:13;;;;;;;11.93;3.22;;;;;;;;;;5019461;28;20044;-71
2022/12/08 01:00:42;;;;;;;10.75;3.47;;;;;;;;;;5021463;28;20033;-71
2022/12/08 01:03:11;;;;;;;8.32;3.22;;;;;;;;;;5003845;28;20481;-71
2022/12/08 01:05:37;;;;;;;5.28;3.25;;;;;;;;;;5034428;28;20035;-71
2022/12/08 01:08:05;;;;;;;10.13;3.03;;;;;;;;;;5037084;28;20091;-71
2022/12/08 01:10:32;;;;;;;6.70;3.28;;;;;;;;;;5024190;28;20117;-71
2022/12/08 01:12:57;;;;;;;4.97;2.85;;;;;;;;;;5005393;28;20029;-71
2022/12/08 01:15:23;;;;;;;6.18;3.55;;;;;;;;;;5029327;28;20053;-72
2022/12/08 01:17:48;;;;;;;6.70;3.10;;;;;;;;;;5032474;28;20048;-71
2022/12/08 01:20:13;;;;;;;7.15;2.95;;;;;;;;;;5022088;28;20026;-71
2022/12/08 01:22:39;;;;;;;5.72;2.97;;;;;;;;;;5032933;28;20037;-71
2022/12/08 01:25:05;;;;;;;9.63;4.03;;;;;;;;;;5004784;28;20492;-71
2022/12/08 01:27:30;;;;;;;14.55;4.35;;;;;;;;;;5022019;28;20057;-71
2022/12/08 01:29:56;;;;;;;7.53;3.97;;;;;;;;;;5019740;28;20087;-71
2022/12/08 01:32:21;;;;;;;7.60;3.38;;;;;;;;;;5021833;28;20045;-72
2022/12/08 01:34:47;;;;;;;5.00;3.42;;;;;;;;;;5021748;28;20029;-71
2022/12/08 01:37:12;;;;;;;6.35;3.25;;;;;;;;;;5028575;28;20041;-71
2022/12/08 01:39:40;;;;;;;7.13;3.45;;;;;;;;;;5026323;28;20512;-72
2022/12/08 01:42:05;;;;;;;8.77;3.90;;;;;;;;;;5023425;28;20073;-71
2022/12/08 01:44:37;;;;;;;5.65;3.15;;;;;;;;;;5025936;28;20677;-71
2022/12/08 01:47:02;;;;;;;5.97;3.10;;;;;;;;;;5024527;28;20124;-71
2022/12/08 01:49:32;;;;;;;5.32;3.15;;;;;;;;;;5039154;28;20172;-71
2022/12/08 01:52:24;;;;;;;9.20;3.55;;;;;;;;;;5023923;28;20116;-72
2022/12/08 01:55:05;;;;;;;6.28;3.50;;;;;;;;;;5033457;28;21329;-71
2022/12/08 01:57:41;;;;;;;7.95;3.85;;;;;;;;;;5024509;28;20033;-71
2022/12/08 02:00:10;;;;;;;8.85;3.40;;;;;;;;;;5025093;28;20102;-71
2022/12/08 02:02:46;;;;;;;7.00;3.43;;;;;;;;;;5005700;28;20040;-71
2022/12/08 02:05:12;;;;;;;6.90;2.75;;;;;;;;;;5015147;28;20398;-71
2022/12/08 02:07:37;;;;;;;11.85;4.03;;;;;;;;;;5017666;28;20069;-71
2022/12/08 02:10:04;;;;;;;15.13;4.47;;;;;;;;;;5018296;28;20025;-71
2022/12/08 02:12:29;;;;;;;6.70;2.85;;;;;;;;;;5019067;28;20041;-71
2022/12/08 02:14:55;;;;;;;6.07;3.05;;;;;;;;;;5023036;28;20041;-71
2022/12/08 02:17:28;;;;;;;9.10;3.35;;;;;;;;;;5016221;28;20046;-71
2022/12/08 02:20:22;;;;;;;6.50;3.30;;;;;;;;;;5033914;28;20044;-71
2022/12/08 02:22:57;;;;;;;10.38;2.45;;;;;;;;;;5008315;28;20103;-71
2022/12/08 02:25:43;;;;;;;4.38;2.75;;;;;;;;;;5020452;28;20076;-72
2022/12/08 02:28:38;;;;;;;6.07;2.20;;;;;;;;;;5038212;28;20112;-71
2022/12/08 02:31:35;;;;;;;4.00;2.47;;;;;;;;;;4996806;28;21324;-71
2022/12/08 02:34:08;;;;;;;5.32;2.72;;;;;;;;;;5041592;28;20038;-71
2022/12/08 02:36:46;;;;;;;4.95;3.38;;;;;;;;;;5022846;28;20104;-72
2022/12/08 02:39:32;;;;;;;4.25;2.72;;;;;;;;;;5043002;28;20047;-71
2022/12/08 02:42:07;;;;;;;4.45;2.40;;;;;;;;;;5030279;28;20081;-71
2022/12/08 02:44:36;;;;;;;5.03;2.50;;;;;;;;;;5023397;28;20075;-72
2022/12/08 02:47:07;;;;;;;4.72;2.33;;;;;;;;;;5018867;28;20389;-71
2022/12/08 02:49:34;;;;;;;9.55;2.25;;;;;;;;;;5013005;28;20068;-71
2022/12/08 02:52:04;;;;;;;6.55;2.67;;;;;;;;;;5009656;28;20076;-71
2022/12/08 02:54:29;;;;;;;5.18;2.17;;;;;;;;;;5024225;28;20037;-71
2022/12/08 02:57:03;;;;;;;4.90;2.65;;;;;;;;;;5028269;28;20136;-72
2022/12/08 02:59:44;;;;;;;7.57;3.22;;;;;;;;;;5022815;28;20038;-71
2022/12/08 03:02:19;;;;;;;3.95;2.40;;;;;;;;;;5023199;28;20048;-71
2022/12/08 03:04:53;;;;;;;4.63;2.15;;;;;;;;;;5018116;28;20037;-71
2022/12/08 03:07:38;;;;;;;;;;;;;;;;;;5019442;28;20120;-71
2022/12/08 03:10:28;;;;;;;5.10;2.25;;;;;;;;;;5014103;28;19921;-71
2022/12/08 03:13:09;;;;;;;7.82;1.80;;;;;;;;;;5007874;28;20033;-71
2022/12/08 03:15:35;;;;;;;3.83;1.95;;;;;;;;;;5037694;28;20491;-71
2022/12/08 03:18:03;;;;;;;5.03;2.50;;;;;;;;;;5009146;28;20128;-71
2022/12/08 03:20:30;;;;;;;6.72;3.03;;;;;;;;;;5026184;28;20045;-71
2022/12/08 03:22:57;;;;;;;10.57;2.55;;;;;;;;;;5037080;28;20036;-71
2022/12/08 03:25:25;;;;;;;5.03;2.65;;;;;;;;;;5005548;28;20037;-71
2022/12/08 03:27:51;;;;;;;5.95;2.80;;;;;;;;;;5029850;28;20033;-71
2022/12/08 03:30:17;;;;;;;8.73;3.05;;;;;;;;;;5022513;28;20022;-72
2022/12/08 03:32:55;;;;;;;4.50;2.20;;;;;;;;;;5001492;28;20073;-71
2022/12/08 03:35:24;;;;;;;3.90;2.15;;;;;;;;;;5001710;28;20393;-72
2022/12/08 03:37:49;;;;;;;7.88;2.30;;;;;;;;;;5005812;28;20064;-72
2022/12/08 03:40:18;;;;;;;12.48;2.72;;;;;;;;;;5030347;28;20029;-72
2022/12/08 03:42:43;;;;;;;4.88;2.33;;;;;;;;;;5011407;28;20099;-71
2022/12/08 03:45:09;;;;;;;7.75;2.63;;;;;;;;;;5026392;28;20112;-71
2022/12/08 03:47:36;;;;;;;6.10;2.90;;;;;;;;;;5018896;28;20136;-71
2022/12/08 03:50:01;;;;;;;3.53;1.73;;;;;;;;;;5033809;28;20041;-71
2022/12/08 03:52:26;;;;;;;5.82;2.42;;;;;;;;;;5027079;28;20053;-72
2022/12/08 03:54:52;;;;;;;4.78;2.03;;;;;;;;;;5028975;28;20073;-71
2022/12/08 03:57:17;;;;;;;5.47;3.10;;;;;;;;;;5025250;28;20050;-71
2022/12/08 03:59:43;;;;;;;3.78;2.38;;;;;;;;;;5027174;28;20096;-71
2022/12/08 04:02:08;;;;;;;3.67;1.73;;;;;;;;;;5021768;28;20393;-71
2022/12/08 04:04:34;;;;;;;4.32;2.15;;;;;;;;;;5020330;28;20041;-72
2022/12/08 04:06:59;;;;;;;5.10;2.67;;;;;;;;;;5031260;28;20542;-72
2022/12/08 04:09:24;;;;;;;3.35;2.25;;;;;;;;;;5031049;28;20458;-72
2022/12/08 04:11:50;;;;;;;3.28;1.58;;;;;;;;;;5031517;28;20029;-71
2022/12/08 04:14:15;;;;;;;5.93;2.60;;;;;;;;;;5030821;28;20482;-71
2022/12/08 04:16:41;;;;;;;4.25;2.17;;;;;;;;;;5023433;28;20054;-71
2022/12/08 04:19:06;;;;;;;5.70;2.88;;;;;;;;;;5033700;28;20109;-71
2022/12/08 04:21:32;;;;;;;8.02;1.90;;;;;;;;;;5027758;28;20358;-72
2022/12/08 04:23:57;;;;;;;4.90;2.42;;;;;;;;;;5029766;28;20033;-72
2022/12/08 04:26:23;;;;;;;8.52;3.78;;;;;;;;;;5021734;28;20068;-71
2022/12/08 04:28:48;;;;;;;5.93;2.38;;;;;;;;;;5049698;28;20124;-71
2022/12/08 04:31:13;;;;;;;3.63;2.00;;;;;;;;;;5031161;28;20061;-72
2022/12/08 04:33:39;;;;;;;4.10;1.95;;;;;;;;;;5018994;28;20056;-71
2022/12/08 04:36:05;;;;;;;6.35;2.58;;;;;;;;;;5029544;28;20034;-72
2022/12/08 04:38:31;;;;;;;7.68;2.88;;;;;;;;;;5036118;28;20038;-72
2022/12/08 04:40:57;;;;;;;4.90;2.13;;;;;;;;;;5037669;28;20033;-72
2022/12/08 04:43:22;;;;;;;3.42;2.03;;;;;;;;;;5038017;28;20036;-72
2022/12/08 04:45:47;;;;;;;4.90;2.03;;;;;;;;;;5031999;28;20036;-71
2022/12/08 04:48:13;;;;;;;7.50;2.08;;;;;;;;;;5022884;28;20050;-71
2022/12/08 04:50:40;;;;;;;6.18;2.28;;;;;;;;;;5023325;28;20034;-71
2022/12/08 04:53:07;;;;;;;3.95;2.03;;;;;;;;;;4998090;28;20065;-71
2022/12/08 04:55:32;;;;;;;5.07;2.55;;;;;;;;;;5010901;28;20096;-72
2022/12/08 04:57:57;;;;;;;4.43;2.20;;;;;;;;;;5036610;28;20089;-72
2022/12/08 05:00:23;;;;;;;4.18;2.10;;;;;;;;;;5018690;28;20029;-71
2022/12/08 05:02:48;;;;;;;5.57;2.17;;;;;;;;;;5020511;28;20037;-71
2022/12/08 05:05:14;;;;;;;7.00;2.72;;;;;;;;;;5022691;28;20088;-71
2022/12/08 05:07:39;;;;;;;11.13;3.47;;;;;;;;;;5018725;28;21829;-72
2022/12/08 05:10:07;;;;;;;6.00;1.75;;;;;;;;;;5023368;28;20539;-71
2022/12/08 05:12:33;;;;;;;9.18;2.38;;;;;;;;;;5023121;28;20082;-71
2022/12/08 05:14:58;;;;;;;4.47;2.33;;;;;;;;;;5034010;28;20502;-72
2022/12/08 05:17:23;;;;;;;3.08;1.83;;;;;;;;;;5026713;28;20041;-71
2022/12/08 05:19:49;;;;;;;3.35;2.00;;;;;;;;;;5024939;28;20061;-72
2022/12/08 05:22:14;;;;;;;7.13;1.90;;;;;;;;;;5022133;28;20443;-71
2022/12/08 05:24:40;;;;;;;3.58;2.05;;;;;;;;;;5025425;28;20071;-72
2022/12/08 05:27:05;;;;;;;7.30;2.05;;;;;;;;;;5018431;28;20485;-72
2022/12/08 05:29:31;;;;;;;8.52;1.83;;;;;;;;;;5028362;28;20112;-71
2022/12/08 05:31:56;;;;;;;3.42;1.70;;;;;;;;;;5030639;28;20072;-72
2022/12/08 05:34:21;;;;;;;4.10;2.00;;;;;;;;;;5033055;28;20064;-71
2022/12/08 05:36:47;;;;;;;4.95;2.25;;;;;;;;;;5028648;28;20037;-71
2022/12/08 05:39:13;;;;;;;6.18;1.85;;;;;;;;;;5028076;28;20033;-72
2022/12/08 05:41:39;;;;;;;5.00;1.85;;;;;;;;;;5041223;28;20053;-72
2022/12/08 05:44:04;;;;;;;7.72;1.77;;;;;;;;;;5034585;28;20038;-72
2022/12/08 05:46:30;;;;;;;4.55;2.20;;;;;;;;;;5023222;28;20045;-71
2022/12/08 05:48:55;;;;;;;4.07;1.83;;;;;;;;;;5030782;28;20049;-71
2022/12/08 05:51:22;;;;;;;5.95;1.90;;;;;;;;;;5022685;28;20045;-72
2022/12/08 05:53:49;;;;;;;5.45;2.40;;;;;;;;;;5045363;28;20048;-71
2022/12/08 05:56:15;;;;;;;3.70;1.50;;;;;;;;;;4989620;28;20464;-71
2022/12/08 05:58:40;;;;;;;6.78;1.80;;;;;;;;;;5033141;28;20064;-72
2022/12/08 06:01:06;;;;;;;4.53;1.40;;;;;;;;;;5005795;28;20038;-72
2022/12/08 06:03:32;;;;;;;2.42;1.33;;;;;;;;;;5020864;28;20041;-71
2022/12/08 06:05:57;;;;;;;3.20;1.80;;;;;;;;;;5028120;28;20060;-71
2022/12/08 06:08:23;;;;;;;2.47;1.40;;;;;;;;;;5002839;28;20120;-72
2022/12/08 06:10:48;;;;;;;6.22;1.58;;;;;;;;;;5028756;28;20440;-72
2022/12/08 06:13:14;;;;;;;3.83;1.73;;;;;;;;;;5031804;28;20033;-71
2022/12/08 06:15:40;;;;;;;2.72;1.42;;;;;;;;;;5001497;28;20038;-71
2022/12/08 06:18:06;;;;;;;3.47;1.40;;;;;;;;;;5019221;28;20389;-71
2022/12/08 06:20:32;;;;;;;4.53;1.77;;;;;;;;;;5021098;28;20026;-71
2022/12/08 06:22:57;;;;;;;6.35;1.77;;;;;;;;;;5006917;28;20048;-71
2022/12/08 06:25:23;;;;;;;6.93;1.50;;;;;;;;;;5021365;28;20042;-72
2022/12/08 06:27:49;;;;;;;3.35;1.58;;;;;;;;;;5022621;28;20038;-71
2022/12/08 06:30:14;;;;;;;10.05;2.08;;;;;;;;;;5002433;28;20042;-71
2022/12/08 06:32:40;;;;;;;2.60;1.30;;;;;;;;;;5029262;28;20044;-72
2022/12/08 06:35:06;;;;;;;3.63;1.58;;;;;;;;;;5019264;28;20029;-71
2022/12/08 06:37:31;;;;;;;1.50;0.98;;;;;;;;;;5017691;28;20034;-71
2022/12/08 06:39:57;;;;;;;3.97;1.83;;;;;;;;;;5031588;28;20084;-71
2022/12/08 06:45:06;;;;;;;3.20;1.40;;;;;;;;;;5019484;28;20086;-72
2022/12/08 06:47:32;;;;;;;2.40;1.42;;;;;;;;;;5021660;28;20124;-71
2022/12/08 06:49:57;;;;;;;3.35;1.73;;;;;;;;;;5028866;28;20025;-72
2022/12/08 06:52:23;;;;;;;5.85;1.80;;;;;;;;;;5024877;28;20358;-71
2022/12/08 06:54:48;;;;;;;2.22;1.42;;;;;;;;;;5030375;28;20512;-72
2022/12/08 06:57:13;;;;;;;3.42;1.80;;;;;;;;;;5028250;28;20125;-71
2022/12/08 06:59:39;;;;;;;2.55;1.25;;;;;;;;;;5017954;28;20036;-72
2022/12/08 07:02:04;;;;;;;3.70;1.73;;;;;;;;;;5030130;28;20041;-71
2022/12/08 07:04:30;;;;;;;9.80;2.17;;;;;;;;;;5021181;28;20040;-71
2022/12/08 07:06:55;;;;;;;4.82;1.70;;;;;;;;;;5018320;28;20081;-71
2022/12/08 07:09:21;;;;;;;1.92;1.15;;;;;;;;;;5015534;28;20059;-72
2022/12/08 07:11:46;;;;;;;3.65;1.45;;;;;;;;;;5022926;28;20159;-71
2022/12/08 07:14:12;;;;;;;2.38;1.00;;;;;;;;;;5024850;28;20088;-71
2022/12/08 07:16:38;;;;;;;2.80;1.38;;;;;;;;;;5025502;28;20374;-71
2022/12/08 07:19:04;;;;;;;6.10;1.50;;;;;;;;;;5030353;28;20164;-71
2022/12/08 07:21:29;;;;;;;2.63;1.20;;;;;;;;;;5037334;28;20466;-72
2022/12/08 07:23:55;;;;;;;3.22;1.60;;;;;;;;;;5000859;28;20048;-71
2022/12/08 07:26:20;;;;;;;9.65;1.85;;;;;;;;;;5023979;28;20164;-71
2022/12/08 07:28:45;;;;;;;3.83;1.92;;;;;;;;;;5026759;28;20105;-72
2022/12/08 07:31:22;;;;;;;2.55;1.92;;;;;;;;;;5044451;28;20393;-71
2022/12/08 07:33:49;;;;;;;2.40;1.48;;;;;;;;;;5010646;28;20080;-71
2022/12/08 07:36:14;;;;;;;3.47;1.35;;;;;;;;;;5037897;28;20039;-71
2022/12/08 07:38:39;;;;;;;2.88;1.30;;;;;;;;;;5013417;28;20034;-71
2022/12/08 07:41:05;;;;;;;3.53;1.58;;;;;;;;;;4890796;28;20053;-72
2022/12/08 07:43:30;;;;;;;4.93;1.65;;;;;;;;;;4774464;28;20449;-71
2022/12/08 07:45:56;;;;;;;3.40;1.95;;;;;;;;;;4951532;28;20052;-71
2022/12/08 07:48:21;;;;;;;10.15;2.10;;;;;;;;;;4949930;28;20064;-71
2022/12/08 07:50:47;;;;;;;4.47;2.08;;;;;;;;;;5027677;28;20385;-71
2022/12/08 07:53:12;;;;;;;8.45;2.08;;;;;;;;;;5024006;28;20041;-71
2022/12/08 07:55:40;;;;;;;8.35;1.67;;;;;;;;;;5026859;28;20052;-71
2022/12/08 07:58:06;;;;;;;7.10;2.00;;;;;;;;;;4785660;28;20591;-71
2022/12/08 08:00:31;;;;;;;3.88;1.92;;;;;;;;;;4997769;28;20088;-71
2022/12/08 08:02:57;;;;;;;11.65;2.70;;;;;;;;;;5034246;28;20091;-71
2022/12/08 08:05:22;;;;;;;6.10;2.33;;;;;;;;;;5027808;28;20034;-71
2022/12/08 08:07:47;;;;;;;6.18;2.60;;;;;;;;;;5013720;28;20029;-71
2022/12/08 08:10:13;;;;;;;9.95;2.95;;;;;;;;;;5033996;28;20038;-71
2022/12/08 08:12:38;;;;;;;5.47;2.83;;;;;;;;;;5031224;28;20052;-71
2022/12/08 08:15:06;;;;;;;3.70;2.05;;;;;;;;;;5029002;28;20029;-73
2022/12/08 08:17:32;;;;;;;4.97;1.83;;;;;;;;;;5041119;28;20414;-71
2022/12/08 08:19:58;;;;;;;4.00;1.58;;;;;;;;;;4999412;28;20038;-72
2022/12/08 08:22:24;;;;;;;4.30;1.70;;;;;;;;;;5027985;28;20103;-71
2022/12/08 08:24:49;;;;;;;2.67;1.70;;;;;;;;;;5023542;28;20548;-71
2022/12/08 08:27:15;;;;;;;4.60;1.90;;;;;;;;;;5022390;28;20038;-72
2022/12/08 08:29:40;;;;;;;4.55;2.30;;;;;;;;;;5022261;28;20079;-71
2022/12/08 08:32:06;;;;;;;4.05;1.90;;;;;;;;;;4986925;28;20401;-71
2022/12/08 08:34:31;;;;;;;3.42;2.08;;;;;;;;;;5022409;28;20049;-72
2022/12/08 08:36:56;;;;;;;4.40;1.95;;;;;;;;;;5018257;28;20491;-72
2022/12/08 08:39:22;;;;;;;3.92;1.52;;;;;;;;;;5026755;28;20068;-71
2022/12/08 08:41:47;;;;;;;6.32;1.90;;;;;;;;;;5019047;28;20041;-72
2022/12/08 08:44:13;;;;;;;6.25;2.00;;;;;;;;;;5017260;28;20038;-73
2022/12/08 08:46:39;;;;;;;3.38;1.40;;;;;;;;;;5021478;28;20120;-72
2022/12/08 08:49:05;;;;;;;56.08;18.77;;;;;;;;;;5023229;28;20480;-73
2022/12/08 08:51:30;;;;;;;25.15;9.95;;;;;;;;;;5021095;28;20113;-72
2022/12/08 08:53:56;;;;;;;27.92;10.32;;;;;;;;;;5030378;28;20045;-72
2022/12/08 08:56:21;;;;;;;17.75;7.50;;;;;;;;;;5015606;28;20417;-73
2022/12/08 08:58:51;;;;;;;9.32;2.53;;;;;;;;;;5023613;28;20033;-72
2022/12/08 09:01:22;;;;;;;7.22;2.97;;;;;;;;;;5017157;28;20042;-73
2022/12/08 09:03:47;;;;;;;11.25;2.80;;;;;;;;;;5020081;28;20088;-72
2022/12/08 09:06:14;;;;;;;5.30;1.98;;;;;;;;;;5034041;28;20494;-73
2022/12/08 09:08:40;;;;;;;7.07;2.30;;;;;;;;;;5028372;28;20034;-72
2022/12/08 09:11:06;;;;;;;24.60;9.20;;;;;;;;;;5020279;28;20496;-73
2022/12/08 09:13:32;;;;;;;21.05;8.15;;;;;;;;;;5008458;28;20038;-72
2022/12/08 09:16:02;;;;;;;16.80;8.25;;;;;;;;;;5016792;28;20030;-72
2022/12/08 09:18:28;;;;;;;23.27;6.70;;;;;;;;;;4985707;28;20482;-72
2022/12/08 09:20:54;;;;;;;14.30;7.03;;;;;;;;;;5015577;28;20037;-73
2022/12/08 09:23:19;;;;;;;19.05;9.70;;;;;;;;;;5013416;28;20042;-73
2022/12/08 09:25:45;;;;;;;22.67;10.73;;;;;;;;;;5013780;28;20100;-73
2022/12/08 09:28:11;;;;;;;23.10;12.93;;;;;;;;;;5003284;28;20473;-72
2022/12/08 09:30:37;;;;;;;27.85;13.02;;;;;;;;;;5026872;28;20040;-72
2022/12/08 09:33:02;;;;;;;27.30;13.20;;;;;;;;;;5021376;28;20045;-72
2022/12/08 09:35:28;;;;;;;26.02;12.32;;;;;;;;;;5025702;28;20084;-73
2022/12/08 09:37:53;;;;;;;8.63;4.00;;;;;;;;;;5022902;28;20092;-73
2022/12/08 09:40:20;;;;;;;8.45;3.80;;;;;;;;;;5025718;28;20038;-73
2022/12/08 09:43:00;;;;;;;5.30;2.63;;;;;;;;;;4999999;28;20026;-72
2022/12/08 09:45:29;;;;;;;5.97;2.08;;;;;;;;;;5003208;28;20040;-72
2022/12/08 09:47:58;;;;;;;7.38;2.63;;;;;;;;;;5026580;28;20124;-72
2022/12/08 09:50:51;;;;;;;7.28;3.08;;;;;;;;;;5002831;28;20083;-71
2022/12/08 09:53:38;;;;;;;7.40;3.90;;;;;;;;;;5013316;28;20498;-72
2022/12/08 09:56:31;;;;;;;10.45;4.00;;;;;;;;;;4996889;28;20065;-72
2022/12/08 09:59:35;;;;;;;11.05;6.63;;;;;;;;;;5019526;28;20037;-71
2022/12/08 10:02:00;;;;;;;17.73;8.63;;;;;;;;;;5014490;28;20037;-71
2022/12/08 10:04:31;;;;;;;20.15;9.60;;;;;;;;;;5022444;28;20504;-71
2022/12/08 10:07:03;;;;;;;17.50;8.73;;;;;;;;;;5024695;28;20034;-71
2022/12/08 10:09:37;;;;;;;13.50;7.30;;;;;;;;;;5030286;28;20378;-71
2022/12/08 10:12:11;;;;;;;;;;;;;;;;;;5036594;28;20026;-71
2022/12/08 10:14:43;;;;;;;15.67;7.00;;;;;;;;;;4993344;28;19924;-71
2022/12/08 10:17:23;;;;;;;16.58;7.88;;;;;;;;;;5044519;28;20033;-72
2022/12/08 10:19:54;;;;;;;15.55;7.47;;;;;;;;;;5038367;28;20037;-71
2022/12/08 10:22:25;;;;;;;17.63;7.63;;;;;;;;;;5041162;28;20056;-71
2022/12/08 10:24:59;;;;;;;12.18;6.47;;;;;;;;;;5018764;28;20037;-72
2022/12/08 10:27:25;;;;;;;16.77;7.35;;;;;;;;;;5007531;28;20041;-71
2022/12/08 10:29:50;;;;;;;12.70;6.85;;;;;;;;;;5023448;28;20037;-71
2022/12/08 10:32:19;;;;;;;15.38;7.00;;;;;;;;;;5016812;28;20445;-72
2022/12/08 10:35:17;;;;;;;20.67;8.27;;;;;;;;;;5001852;28;20516;-71
2022/12/08 10:38:00;;;;;;;14.13;7.63;;;;;;;;;;4995543;28;20077;-72
2022/12/08 10:40:35;;;;;;;12.73;6.47;;;;;;;;;;5017962;28;20123;-72
2022/12/08 10:43:00;;;;;;;15.50;6.80;;;;;;;;;;5000960;28;20445;-72
2022/12/08 10:45:35;;;;;;;16.85;5.68;;;;;;;;;;5040014;28;20037;-72
2022/12/08 10:48:12;;;;;;;16.15;7.20;;;;;;;;;;5034535;28;20045;-72
2022/12/08 10:50:44;;;;;;;11.52;5.65;;;;;;;;;;4983189;28;20058;-72
2022/12/08 10:53:22;;;;;;;11.80;6.03;;;;;;;;;;5009535;28;20044;-72
2022/12/08 10:55:49;;;;;;;14.40;6.78;;;;;;;;;;5021589;28;20431;-73
2022/12/08 10:58:27;;;;;;;12.77;6.78;;;;;;;;;;5010538;28;20592;-72
2022/12/08 11:00:58;;;;;;;12.65;6.75;;;;;;;;;;5014455;28;20574;-72
2022/12/08 11:03:29;;;;;;;11.10;6.00;;;;;;;;;;5023875;28;20045;-73
2022/12/08 11:05:56;;;;;;;11.65;6.53;;;;;;;;;;4989371;28;20038;-72
2022/12/08 11:08:22;;;;;;;11.68;6.03;;;;;;;;;;5010279;28;20045;-73
2022/12/08 11:10:48;;;;;;;12.05;6.28;;;;;;;;;;5028074;28;20408;-72
2022/12/08 11:13:26;;;;;;;13.90;5.60;;;;;;;;;;5038629;28;20478;-72
2022/12/08 11:15:53;;;;;;;14.95;6.50;;;;;;;;;;5016985;28;20088;-72
2022/12/08 11:18:28;;;;;;;13.15;6.93;;;;;;;;;;4999079;28;20040;-73
2022/12/08 11:21:05;;;;;;;14.52;5.63;;;;;;;;;;5014479;28;20038;-73
2022/12/08 11:23:34;;;;;;;15.60;6.07;;;;;;;;;;5008010;28;20082;-72
2022/12/08 11:26:04;;;;;;;12.50;6.55;;;;;;;;;;5028191;28;20057;-72
2022/12/08 11:28:29;;;;;;;16.45;7.13;;;;;;;;;;5031870;28;20076;-72
2022/12/08 11:31:04;;;;;;;12.07;6.85;;;;;;;;;;5021267;28;20053;-72
2022/12/08 11:33:29;;;;;;;14.48;6.10;;;;;;;;;;4997873;28;20038;-72
2022/12/08 11:36:06;;;;;;;17.02;6.95;;;;;;;;;;5011100;28;20034;-72
2022/12/08 11:38:32;;;;;;;16.77;6.22;;;;;;;;;;5036218;28;20103;-72
2022/12/08 11:41:08;;;;;;;15.10;5.28;;;;;;;;;;5030823;28;20022;-72
2022/12/08 11:43:33;;;;;;;14.77;7.22;;;;;;;;;;5029772;28;20096;-72
2022/12/08 11:46:01;;;;;;;16.67;7.20;;;;;;;;;;5020413;28;20038;-72
2022/12/08 11:48:52;;;;;;;15.13;6.88;;;;;;;;;;5028230;28;20046;-73
2022/12/08 11:51:31;;;;;;;13.45;6.07;;;;;;;;;;5019986;28;20072;-72
2022/12/08 11:54:17;;;;;;;16.52;6.93;;;;;;;;;;5011451;28;20502;-74
2022/12/08 11:56:49;;;;;;;16.10;6.43;;;;;;;;;;5031339;28;20132;-72
2022/12/08 11:59:38;;;;;;;18.48;7.18;;;;;;;;;;4740173;28;20052;-72
2022/12/08 12:02:04;;;;;;;13.63;6.65;;;;;;;;;;5022968;28;20041;-73
2022/12/08 12:04:29;;;;;;;9.52;4.75;;;;;;;;;;4998975;28;20101;-72
2022/12/08 12:07:36;;;;;;;9.18;3.88;;;;;;;;;;5026272;28;20568;-72
2022/12/08 12:10:38;;;;;;;10.73;4.30;;;;;;;;;;5000861;28;20404;-73
2022/12/08 12:13:31;;;;;;;9.43;4.35;;;;;;;;;;5025714;28;20437;-72
2022/12/08 12:16:15;;;;;;;8.77;4.38;;;;;;;;;;5017293;28;20041;-72
2022/12/08 12:18:45;;;;;;;12.25;2.63;;;;;;;;;;5018378;28;20049;-72
2022/12/08 12:21:17;;;;;;;5.43;3.22;;;;;;;;;;5036352;28;20120;-72
2022/12/08 12:23:54;;;;;;;9.00;3.83;;;;;;;;;;5020515;28;20042;-73
2022/12/08 12:26:22;;;;;;;8.95;4.68;;;;;;;;;;5036196;28;20428;-73
2022/12/08 12:28:58;;;;;;;9.82;3.22;;;;;;;;;;5010685;28;20049;-72
2022/12/08 12:31:27;;;;;;;10.45;4.10;;;;;;;;;;5026406;28;20053;-72
2022/12/08 12:33:56;;;;;;;7.32;3.30;;;;;;;;;;5016305;28;20038;-73
2022/12/08 12:36:22;;;;;;;6.35;2.55;;;;;;;;;;5037642;28;20545;-74
2022/12/08 12:39:01;;;;;;;8.80;2.65;;;;;;;;;;5022794;28;20042;-72
2022/12/08 12:41:29;;;;;;;7.32;3.20;;;;;;;;;;5027603;28;20049;-72
2022/12/08 12:44:11;;;;;;;13.02;2.92;;;;;;;;;;5015594;28;20041;-72
2022/12/08 12:46:47;;;;;;;6.63;2.72;;;;;;;;;;5022839;28;20069;-72
2022/12/08 12:49:42;;;;;;;6.80;1.63;;;;;;;;;;5018778;28;20398;-73
2022/12/08 12:52:22;;;;;;;11.57;3.30;;;;;;;;;;5003014;28;20030;-75
2022/12/08 12:54:48;;;;;;;4.32;2.28;;;;;;;;;;5014734;28;20065;-72
2022/12/08 12:57:19;;;;;;;12.57;2.80;;;;;;;;;;5015862;28;20120;-74
2022/12/08 12:59:45;;;;;;;6.68;2.53;;;;;;;;;;5015904;28;20048;-72
2022/12/08 13:02:29;;;;;;;8.10;1.80;;;;;;;;;;5038028;28;20101;-73
2022/12/08 13:05:01;;;;;;;7.15;2.03;;;;;;;;;;4998221;28;20040;-72
2022/12/08 13:07:33;;;;;;;8.88;1.65;;;;;;;;;;5032058;28;20045;-73
2022/12/08 13:10:16;;;;;;;6.15;1.75;;;;;;;;;;4997678;28;20049;-72
2022/12/08 13:12:43;;;;;;;6.18;1.67;;;;;;;;;;5035173;28;20030;-72
2022/12/08 13:15:18;;;;;;;9.27;1.30;;;;;;;;;;5037326;28;20478;-72
2022/12/08 13:17:46;;;;;;;2.88;0.90;;;;;;;;;;5030105;28;20420;-73
2022/12/08 13:20:19;;;;;;;3.67;1.20;;;;;;;;;;5005767;28;20037;-73
2022/12/08 13:23:10;;;;;;;2.03;1.02;;;;;;;;;;4994094;28;20390;-72
2022/12/08 13:25:39;;;;;;;6.10;1.20;;;;;;;;;;4787166;28;20049;-73
2022/12/08 13:28:24;;;;;;;4.35;0.95;;;;;;;;;;4984576;28;20110;-72
2022/12/08 13:31:01;;;;;;;2.20;1.00;;;;;;;;;;5026326;28;20045;-72
2022/12/08 13:33:28;;;;;;;4.13;0.88;;;;;;;;;;5016974;28;20057;-72
2022/12/08 13:36:21;;;;;;;3.95;1.08;;;;;;;;;;4999773;28;20029;-72
2022/12/08 13:38:50;;;;;;;4.00;1.05;;;;;;;;;;4795774;28;20508;-72
2022/12/08 13:41:19;;;;;;;1.95;1.10;;;;;;;;;;4997792;28;20045;-73
2022/12/08 13:43:52;;;;;;;8.70;1.05;;;;;;;;;;5034260;28;20045;-73
2022/12/08 13:46:28;;;;;;;6.10;1.10;;;;;;;;;;4996769;28;20157;-73
2022/12/08 13:48:54;;;;;;;2.15;1.02;;;;;;;;;;5017889;28;20057;-72
2022/12/08 13:51:27;;;;;;;2.08;0.90;;;;;;;;;;5018265;28;20056;-73
2022/12/08 13:53:56;;;;;;;2.75;1.15;;;;;;;;;;5035671;28;20400;-73
2022/12/08 13:56:22;;;;;;;2.33;0.90;;;;;;;;;;5016940;28;20073;-73
2022/12/08 13:58:47;;;;;;;5.57;1.40;;;;;;;;;;5005457;28;20057;-73
2022/12/08 14:01:22;;;;;;;2.75;1.00;;;;;;;;;;5003181;28;20474;-73
2022/12/08 14:03:51;;;;;;;1.45;0.77;;;;;;;;;;5021097;28;20087;-73
2022/12/08 14:06:19;;;;;;;2.35;0.80;;;;;;;;;;5012227;28;20423;-74
2022/12/08 14:08:53;;;;;;;3.53;1.10;;;;;;;;;;5012995;28;20061;-73
2022/12/08 14:11:32;;;;;;;4.88;1.00;;;;;;;;;;5009673;28;20077;-73
2022/12/08 14:14:28;;;;;;;2.58;0.80;;;;;;;;;;4995470;28;20049;-73
2022/12/08 14:16:56;;;;;;;1.98;0.82;;;;;;;;;;5019308;28;20042;-73
2022/12/08 14:19:23;;;;;;;2.20;0.90;;;;;;;;;;5024992;28;20389;-73
2022/12/08 14:22:08;;;;;;;3.50;0.82;;;;;;;;;;5022267;28;20038;-74
2022/12/08 14:24:33;;;;;;;5.97;0.88;;;;;;;;;;5000743;28;20033;-72
2022/12/08 14:27:01;;;;;;;1.67;0.77;;;;;;;;;;5024448;28;20096;-73
2022/12/08 14:29:48;;;;;;;1.70;1.00;;;;;;;;;;5043080;28;20034;-73
2022/12/08 14:32:29;;;;;;;4.95;1.00;;;;;;;;;;5019269;28;20489;-73
2022/12/08 14:34:56;;;;;;;4.72;1.25;;;;;;;;;;5040333;28;20416;-73
2022/12/08 14:37:24;;;;;;;3.80;1.00;;;;;;;;;;5022304;28;20041;-73
2022/12/08 14:39:50;;;;;;;1.88;1.10;;;;;;;;;;5016465;28;20066;-73
2022/12/08 14:42:22;;;;;;;7.90;1.58;;;;;;;;;;5016373;28;20107;-73
2022/12/08 14:44:47;;;;;;;4.18;1.45;;;;;;;;;;5005670;28;20442;-73
2022/12/08 14:47:17;;;;;;;3.38;1.75;;;;;;;;;;5004492;28;20115;-72
2022/12/08 14:49:43;;;;;;;6.20;1.98;;;;;;;;;;4993140;28;20069;-73
2022/12/08 14:52:10;;;;;;;3.22;1.70;;;;;;;;;;4991857;28;20526;-72
2022/12/08 14:54:36;;;;;;;5.43;2.33;;;;;;;;;;4970497;28;20030;-72
2022/12/08 14:57:02;;;;;;;6.55;1.90;;;;;;;;;;4980833;28;20035;-72
2022/12/08 14:59:32;;;;;;;3.38;1.85;;;;;;;;;;4992544;28;20761;-73
2022/12/08 15:02:30;;;;;;;5.90;2.25;;;;;;;;;;4976488;28;20485;-74